CCGS Tanu — CGBY — position and weather

sailwx.info

Track history (hours):
 
Tides and Currents Weather Stations Pressure Air Temp Water Temp Dewpoint Dewpoint Depression Visibility Wind Speed Wind Dir Waves Ship Positions

CCGS Tanu (Canada)

Ship's website: http://www.ccg-gcc.gc.ca/vessels-navires/details_e.asp?id=M-5

Last reported at 2014-Oct-01 19:33 UTC. Time now 2014-Oct-01 20:15 UTC.
Position N 50°43' W 127°29'.

Length 54.5 m; beam 9.7 m; draft 3.7 m.

Type: SAR. MMSI: 316091000.

Date/timePositionNaut miles runAvg speedWind from/ knotsBaromVisibWave heightAir tempDewpointWater temp
2014-Oct-01 19:33N 50°43' W 127°29'0 0.0
2014-Oct-01 18:33N 50°43' W 127°29'0 0.0
2014-Oct-01 17:33N 50°43' W 127°29'0 0.0
2014-Oct-01 16:33N 50°43' W 127°29'0 0.0
2014-Oct-01 15:33N 50°43' W 127°29'3 2.4
2014-Oct-01 14:28N 50°46' W 127°28'8 9.3
2014-Oct-01 13:33N 50°51' W 127°39'0 0.0
2014-Oct-01 12:29N 50°51' W 127°39'0 0.0
2014-Oct-01 11:26N 50°51' W 127°39'0 0.0
2014-Oct-01 10:32N 50°51' W 127°39'0 0.0
2014-Oct-01 09:32N 50°51' W 127°39'0 0.0
2014-Oct-01 08:32N 50°51' W 127°39'0 0.0
2014-Oct-01 07:32N 50°51' W 127°39'0 0.0
2014-Oct-01 06:20N 50°51' W 127°39'0 0.0
2014-Oct-01 05:32N 50°51' W 127°39'0 0.0
2014-Oct-01 04:26N 50°51' W 127°39'0 0.0
2014-Oct-01 03:32N 50°51' W 127°39'0 0.0
2014-Oct-01 02:32N 50°51' W 127°39'0 0.0
2014-Oct-01 01:32N 50°51' W 127°39'0 0.0
2014-Oct-01 00:26N 50°51' W 127°39'0 0.0
2014-Sep-30 23:32N 50°51' W 127°39'1 0.6
2014-Sep-30 22:33N 50°50' W 127°39'  
2014-Sep-27 01:00N 50°00' W 127°06'   130 / 31015.0 15.615.816.6
Track history (hours):
 
Tides and Currents Weather Stations Pressure Air Temp Water Temp Dewpoint Dewpoint Depression Visibility Wind Speed Wind Dir Waves Ship Positions

CCGS Tanu (Canada)

Ship's website: http://www.ccg-gcc.gc.ca/vessels-navires/details_e.asp?id=M-5

Last reported at 2014-Oct-01 19:33 UTC. Time now 2014-Oct-01 20:15 UTC.
Position N 50°43' W 127°29'.

Length 54.5 m; beam 9.7 m; draft 3.7 m.

Type: SAR. MMSI: 316091000.

Date/timePositionNaut miles runAvg speedWind from/ knotsBaromVisibWave heightAir tempDewpointWater temp
2014-Oct-01 19:33N 50°43' W 127°29'0 0.0
2014-Oct-01 18:33N 50°43' W 127°29'0 0.0
2014-Oct-01 17:33N 50°43' W 127°29'0 0.0
2014-Oct-01 16:33N 50°43' W 127°29'0 0.0
2014-Oct-01 15:33N 50°43' W 127°29'3 2.4
2014-Oct-01 14:28N 50°46' W 127°28'8 9.3
2014-Oct-01 13:33N 50°51' W 127°39'0 0.0
2014-Oct-01 12:29N 50°51' W 127°39'0 0.0
2014-Oct-01 11:26N 50°51' W 127°39'0 0.0
2014-Oct-01 10:32N 50°51' W 127°39'0 0.0
2014-Oct-01 09:32N 50°51' W 127°39'0 0.0
2014-Oct-01 08:32N 50°51' W 127°39'0 0.0
2014-Oct-01 07:32N 50°51' W 127°39'0 0.0
2014-Oct-01 06:20N 50°51' W 127°39'0 0.0
2014-Oct-01 05:32N 50°51' W 127°39'0 0.0
2014-Oct-01 04:26N 50°51' W 127°39'0 0.0
2014-Oct-01 03:32N 50°51' W 127°39'0 0.0
2014-Oct-01 02:32N 50°51' W 127°39'0 0.0
2014-Oct-01 01:32N 50°51' W 127°39'0 0.0
2014-Oct-01 00:26N 50°51' W 127°39'0 0.0
2014-Sep-30 23:32N 50°51' W 127°39'1 0.6
2014-Sep-30 22:33N 50°50' W 127°39'  
2014-Sep-27 01:00N 50°00' W 127°06'   130 / 31015.0 15.615.816.6

Dump ship's entire track history